sensor_id;sensor_type;location;lat;lon;timestamp;P1;durP1;ratioP1;P2;durP2;ratioP2
71570;SDS011;59407;42.682;23.322;2023-09-19T00:01:33;5.23;;;2.70;;
71570;SDS011;59407;42.682;23.322;2023-09-19T00:04:00;5.45;;;2.72;;
71570;SDS011;59407;42.682;23.322;2023-09-19T00:06:29;7.05;;;3.10;;
71570;SDS011;59407;42.682;23.322;2023-09-19T00:08:56;5.45;;;2.72;;
71570;SDS011;59407;42.682;23.322;2023-09-19T00:11:27;4.68;;;2.88;;
71570;SDS011;59407;42.682;23.322;2023-09-19T00:13:54;4.77;;;2.93;;
71570;SDS011;59407;42.682;23.322;2023-09-19T00:16:19;4.93;;;2.80;;
71570;SDS011;59407;42.682;23.322;2023-09-19T00:18:45;5.13;;;2.90;;
71570;SDS011;59407;42.682;23.322;2023-09-19T00:21:11;5.80;;;3.13;;
71570;SDS011;59407;42.682;23.322;2023-09-19T00:23:37;5.95;;;3.15;;
71570;SDS011;59407;42.682;23.322;2023-09-19T00:26:08;5.25;;;3.10;;
71570;SDS011;59407;42.682;23.322;2023-09-19T00:28:34;4.67;;;2.60;;
71570;SDS011;59407;42.682;23.322;2023-09-19T00:31:02;6.47;;;3.40;;
71570;SDS011;59407;42.682;23.322;2023-09-19T00:33:29;5.78;;;3.05;;
71570;SDS011;59407;42.682;23.322;2023-09-19T00:35:56;7.97;;;3.10;;
71570;SDS011;59407;42.682;23.322;2023-09-19T00:38:22;6.90;;;3.25;;
71570;SDS011;59407;42.682;23.322;2023-09-19T00:40:52;4.82;;;2.88;;
71570;SDS011;59407;42.682;23.322;2023-09-19T00:43:18;5.03;;;2.60;;
71570;SDS011;59407;42.682;23.322;2023-09-19T00:45:44;4.88;;;2.80;;
71570;SDS011;59407;42.682;23.322;2023-09-19T00:48:10;5.97;;;3.10;;
71570;SDS011;59407;42.682;23.322;2023-09-19T00:50:37;6.53;;;3.00;;
71570;SDS011;59407;42.682;23.322;2023-09-19T00:53:07;6.38;;;3.30;;
71570;SDS011;59407;42.682;23.322;2023-09-19T00:55:33;7.50;;;3.13;;
71570;SDS011;59407;42.682;23.322;2023-09-19T00:57:59;5.65;;;3.35;;
71570;SDS011;59407;42.682;23.322;2023-09-19T01:00:25;5.07;;;2.60;;
71570;SDS011;59407;42.682;23.322;2023-09-19T01:02:52;6.95;;;3.38;;
71570;SDS011;59407;42.682;23.322;2023-09-19T01:05:17;5.05;;;3.08;;
71570;SDS011;59407;42.682;23.322;2023-09-19T01:07:43;5.03;;;3.33;;
71570;SDS011;59407;42.682;23.322;2023-09-19T01:10:11;4.93;;;3.42;;
71570;SDS011;59407;42.682;23.322;2023-09-19T01:15:09;8.48;;;3.80;;
71570;SDS011;59407;42.682;23.322;2023-09-19T01:17:46;6.57;;;3.38;;
71570;SDS011;59407;42.682;23.322;2023-09-19T01:23:03;5.85;;;3.00;;
71570;SDS011;59407;42.682;23.322;2023-09-19T01:28:32;7.10;;;3.13;;
71570;SDS011;59407;42.682;23.322;2023-09-19T01:31:21;6.07;;;3.13;;
71570;SDS011;59407;42.682;23.322;2023-09-19T01:33:56;6.57;;;3.50;;
71570;SDS011;59407;42.682;23.322;2023-09-19T01:36:31;7.32;;;3.30;;
71570;SDS011;59407;42.682;23.322;2023-09-19T01:39:02;6.45;;;3.50;;
71570;SDS011;59407;42.682;23.322;2023-09-19T01:44:29;7.32;;;3.50;;
71570;SDS011;59407;42.682;23.322;2023-09-19T01:47:01;8.33;;;3.60;;
71570;SDS011;59407;42.682;23.322;2023-09-19T01:49:33;7.65;;;3.88;;
71570;SDS011;59407;42.682;23.322;2023-09-19T01:52:14;5.88;;;3.58;;
71570;SDS011;59407;42.682;23.322;2023-09-19T01:54:51;6.85;;;3.95;;
71570;SDS011;59407;42.682;23.322;2023-09-19T01:59:50;9.03;;;3.90;;
71570;SDS011;59407;42.682;23.322;2023-09-19T02:02:17;6.20;;;3.92;;
71570;SDS011;59407;42.682;23.322;2023-09-19T02:04:47;7.72;;;3.95;;
71570;SDS011;59407;42.682;23.322;2023-09-19T02:07:14;7.53;;;4.25;;
71570;SDS011;59407;42.682;23.322;2023-09-19T02:09:40;7.78;;;4.60;;
71570;SDS011;59407;42.682;23.322;2023-09-19T02:12:08;8.33;;;4.40;;
71570;SDS011;59407;42.682;23.322;2023-09-19T02:14:34;9.73;;;4.45;;
71570;SDS011;59407;42.682;23.322;2023-09-19T02:17:03;11.40;;;4.30;;
71570;SDS011;59407;42.682;23.322;2023-09-19T02:19:37;7.90;;;4.00;;
71570;SDS011;59407;42.682;23.322;2023-09-19T02:22:04;7.78;;;4.32;;
71570;SDS011;59407;42.682;23.322;2023-09-19T02:24:35;7.90;;;4.70;;
71570;SDS011;59407;42.682;23.322;2023-09-19T02:27:00;9.65;;;4.43;;
71570;SDS011;59407;42.682;23.322;2023-09-19T02:29:29;8.15;;;4.38;;
71570;SDS011;59407;42.682;23.322;2023-09-19T02:31:55;7.65;;;4.28;;
71570;SDS011;59407;42.682;23.322;2023-09-19T02:34:21;7.00;;;4.37;;
71570;SDS011;59407;42.682;23.322;2023-09-19T02:36:47;10.68;;;4.07;;
71570;SDS011;59407;42.682;23.322;2023-09-19T02:39:12;7.87;;;4.07;;
71570;SDS011;59407;42.682;23.322;2023-09-19T02:41:38;7.77;;;4.20;;
71570;SDS011;59407;42.682;23.322;2023-09-19T02:44:03;9.90;;;4.40;;
71570;SDS011;59407;42.682;23.322;2023-09-19T02:46:32;7.60;;;4.30;;
71570;SDS011;59407;42.682;23.322;2023-09-19T02:48:58;6.88;;;3.85;;
71570;SDS011;59407;42.682;23.322;2023-09-19T02:51:25;5.82;;;3.85;;
71570;SDS011;59407;42.682;23.322;2023-09-19T02:53:51;6.57;;;3.95;;
71570;SDS011;59407;42.682;23.322;2023-09-19T02:56:20;7.00;;;3.83;;
71570;SDS011;59407;42.682;23.322;2023-09-19T02:58:45;9.60;;;4.13;;
71570;SDS011;59407;42.682;23.322;2023-09-19T03:01:13;6.33;;;3.90;;
71570;SDS011;59407;42.682;23.322;2023-09-19T03:03:39;9.25;;;4.15;;
71570;SDS011;59407;42.682;23.322;2023-09-19T03:06:05;8.00;;;4.47;;
71570;SDS011;59407;42.682;23.322;2023-09-19T03:08:34;7.97;;;4.15;;
71570;SDS011;59407;42.682;23.322;2023-09-19T03:11:03;8.93;;;3.42;;
71570;SDS011;59407;42.682;23.322;2023-09-19T03:13:28;8.53;;;4.57;;
71570;SDS011;59407;42.682;23.322;2023-09-19T03:15:56;7.70;;;4.25;;
71570;SDS011;59407;42.682;23.322;2023-09-19T03:18:23;8.60;;;4.55;;
71570;SDS011;59407;42.682;23.322;2023-09-19T03:20:54;6.10;;;3.65;;
71570;SDS011;59407;42.682;23.322;2023-09-19T03:23:21;8.68;;;4.53;;
71570;SDS011;59407;42.682;23.322;2023-09-19T03:25:47;8.77;;;5.00;;
71570;SDS011;59407;42.682;23.322;2023-09-19T03:28:14;7.97;;;4.22;;
71570;SDS011;59407;42.682;23.322;2023-09-19T03:30:41;7.75;;;4.47;;
71570;SDS011;59407;42.682;23.322;2023-09-19T03:33:07;6.85;;;4.40;;
71570;SDS011;59407;42.682;23.322;2023-09-19T03:35:33;7.18;;;4.07;;
71570;SDS011;59407;42.682;23.322;2023-09-19T03:37:59;8.97;;;4.93;;
71570;SDS011;59407;42.682;23.322;2023-09-19T03:40:25;7.40;;;4.20;;
71570;SDS011;59407;42.682;23.322;2023-09-19T03:42:51;7.77;;;4.27;;
71570;SDS011;59407;42.682;23.322;2023-09-19T03:45:17;7.43;;;4.22;;
71570;SDS011;59407;42.682;23.322;2023-09-19T03:47:43;9.32;;;4.65;;
71570;SDS011;59407;42.682;23.322;2023-09-19T03:50:09;8.90;;;4.63;;
71570;SDS011;59407;42.682;23.322;2023-09-19T03:52:36;8.30;;;4.65;;
71570;SDS011;59407;42.682;23.322;2023-09-19T03:55:01;7.80;;;4.90;;
71570;SDS011;59407;42.682;23.322;2023-09-19T03:57:29;7.80;;;4.20;;
71570;SDS011;59407;42.682;23.322;2023-09-19T03:59:55;8.27;;;4.65;;
71570;SDS011;59407;42.682;23.322;2023-09-19T04:02:21;9.32;;;4.57;;
71570;SDS011;59407;42.682;23.322;2023-09-19T04:04:48;8.57;;;4.50;;
71570;SDS011;59407;42.682;23.322;2023-09-19T04:07:13;9.95;;;4.57;;
71570;SDS011;59407;42.682;23.322;2023-09-19T04:09:39;8.18;;;4.45;;
71570;SDS011;59407;42.682;23.322;2023-09-19T04:12:05;9.73;;;5.17;;
71570;SDS011;59407;42.682;23.322;2023-09-19T04:14:36;8.20;;;4.25;;
71570;SDS011;59407;42.682;23.322;2023-09-19T04:17:11;11.20;;;5.13;;
71570;SDS011;59407;42.682;23.322;2023-09-19T04:20:02;10.68;;;6.22;;
71570;SDS011;59407;42.682;23.322;2023-09-19T04:22:32;12.57;;;6.63;;
71570;SDS011;59407;42.682;23.322;2023-09-19T04:24:58;12.00;;;6.33;;
71570;SDS011;59407;42.682;23.322;2023-09-19T04:27:24;11.67;;;5.80;;
71570;SDS011;59407;42.682;23.322;2023-09-19T04:29:49;11.82;;;5.88;;
71570;SDS011;59407;42.682;23.322;2023-09-19T04:32:15;10.80;;;5.65;;
71570;SDS011;59407;42.682;23.322;2023-09-19T04:34:42;12.23;;;4.77;;
71570;SDS011;59407;42.682;23.322;2023-09-19T04:37:09;7.68;;;5.20;;
71570;SDS011;59407;42.682;23.322;2023-09-19T04:39:36;9.93;;;5.60;;
71570;SDS011;59407;42.682;23.322;2023-09-19T04:42:03;8.77;;;4.63;;
71570;SDS011;59407;42.682;23.322;2023-09-19T04:44:31;9.80;;;4.90;;
71570;SDS011;59407;42.682;23.322;2023-09-19T04:46:57;10.20;;;5.57;;
71570;SDS011;59407;42.682;23.322;2023-09-19T04:49:24;8.48;;;5.57;;
71570;SDS011;59407;42.682;23.322;2023-09-19T04:51:50;9.93;;;5.07;;
71570;SDS011;59407;42.682;23.322;2023-09-19T04:54:20;11.13;;;6.10;;
71570;SDS011;59407;42.682;23.322;2023-09-19T04:56:47;9.13;;;5.28;;
71570;SDS011;59407;42.682;23.322;2023-09-19T04:59:13;8.98;;;5.00;;
71570;SDS011;59407;42.682;23.322;2023-09-19T05:01:41;7.32;;;3.45;;
71570;SDS011;59407;42.682;23.322;2023-09-19T05:04:07;7.70;;;4.43;;
71570;SDS011;59407;42.682;23.322;2023-09-19T05:06:32;7.45;;;4.50;;
71570;SDS011;59407;42.682;23.322;2023-09-19T05:08:58;8.90;;;4.83;;
71570;SDS011;59407;42.682;23.322;2023-09-19T05:11:25;7.55;;;4.00;;
71570;SDS011;59407;42.682;23.322;2023-09-19T05:13:52;7.70;;;4.22;;
71570;SDS011;59407;42.682;23.322;2023-09-19T05:16:19;7.38;;;5.93;;
71570;SDS011;59407;42.682;23.322;2023-09-19T05:18:44;8.17;;;4.67;;
71570;SDS011;59407;42.682;23.322;2023-09-19T05:21:10;8.63;;;4.33;;
71570;SDS011;59407;42.682;23.322;2023-09-19T05:23:37;6.18;;;3.63;;
71570;SDS011;59407;42.682;23.322;2023-09-19T05:26:03;5.57;;;3.50;;
71570;SDS011;59407;42.682;23.322;2023-09-19T05:28:29;6.65;;;3.60;;
71570;SDS011;59407;42.682;23.322;2023-09-19T05:30:55;7.50;;;4.37;;
71570;SDS011;59407;42.682;23.322;2023-09-19T05:33:21;6.65;;;3.33;;
71570;SDS011;59407;42.682;23.322;2023-09-19T05:35:49;6.83;;;3.77;;
71570;SDS011;59407;42.682;23.322;2023-09-19T05:38:14;7.00;;;3.38;;
71570;SDS011;59407;42.682;23.322;2023-09-19T05:40:44;6.82;;;4.00;;
71570;SDS011;59407;42.682;23.322;2023-09-19T05:43:10;7.55;;;4.00;;
71570;SDS011;59407;42.682;23.322;2023-09-19T05:45:35;6.10;;;3.60;;
71570;SDS011;59407;42.682;23.322;2023-09-19T05:48:09;8.45;;;4.00;;
71570;SDS011;59407;42.682;23.322;2023-09-19T05:50:37;6.05;;;3.70;;
71570;SDS011;59407;42.682;23.322;2023-09-19T05:53:03;9.10;;;5.78;;
71570;SDS011;59407;42.682;23.322;2023-09-19T05:55:29;11.97;;;5.23;;
71570;SDS011;59407;42.682;23.322;2023-09-19T05:57:58;8.43;;;3.95;;
71570;SDS011;59407;42.682;23.322;2023-09-19T06:00:25;9.80;;;4.22;;
71570;SDS011;59407;42.682;23.322;2023-09-19T06:03:06;6.90;;;3.60;;
71570;SDS011;59407;42.682;23.322;2023-09-19T06:05:33;7.25;;;4.03;;
71570;SDS011;59407;42.682;23.322;2023-09-19T06:07:59;6.20;;;3.30;;
71570;SDS011;59407;42.682;23.322;2023-09-19T06:10:26;5.65;;;3.38;;
71570;SDS011;59407;42.682;23.322;2023-09-19T06:12:53;6.82;;;3.65;;
71570;SDS011;59407;42.682;23.322;2023-09-19T06:15:20;6.47;;;4.07;;
71570;SDS011;59407;42.682;23.322;2023-09-19T06:17:51;5.63;;;3.13;;
71570;SDS011;59407;42.682;23.322;2023-09-19T06:20:20;5.57;;;3.30;;
71570;SDS011;59407;42.682;23.322;2023-09-19T06:22:47;9.43;;;4.25;;
71570;SDS011;59407;42.682;23.322;2023-09-19T06:25:14;5.63;;;3.08;;
71570;SDS011;59407;42.682;23.322;2023-09-19T06:27:47;7.10;;;3.50;;
71570;SDS011;59407;42.682;23.322;2023-09-19T06:30:30;7.57;;;3.45;;
71570;SDS011;59407;42.682;23.322;2023-09-19T06:32:57;6.07;;;3.78;;
71570;SDS011;59407;42.682;23.322;2023-09-19T06:35:23;7.10;;;3.47;;
71570;SDS011;59407;42.682;23.322;2023-09-19T06:37:51;5.10;;;3.15;;
71570;SDS011;59407;42.682;23.322;2023-09-19T06:40:17;4.20;;;2.57;;
71570;SDS011;59407;42.682;23.322;2023-09-19T06:42:50;5.03;;;2.67;;
71570;SDS011;59407;42.682;23.322;2023-09-19T06:45:21;6.07;;;3.17;;
71570;SDS011;59407;42.682;23.322;2023-09-19T06:47:48;5.20;;;2.58;;
71570;SDS011;59407;42.682;23.322;2023-09-19T06:50:15;5.30;;;3.10;;
71570;SDS011;59407;42.682;23.322;2023-09-19T06:52:45;5.97;;;3.00;;
71570;SDS011;59407;42.682;23.322;2023-09-19T06:55:13;5.10;;;3.10;;
71570;SDS011;59407;42.682;23.322;2023-09-19T06:57:41;5.88;;;3.47;;
71570;SDS011;59407;42.682;23.322;2023-09-19T07:00:09;5.85;;;3.00;;
71570;SDS011;59407;42.682;23.322;2023-09-19T07:02:44;6.18;;;3.70;;
71570;SDS011;59407;42.682;23.322;2023-09-19T07:05:09;5.17;;;3.27;;
71570;SDS011;59407;42.682;23.322;2023-09-19T07:07:35;7.93;;;3.50;;
71570;SDS011;59407;42.682;23.322;2023-09-19T07:10:01;9.67;;;3.10;;
71570;SDS011;59407;42.682;23.322;2023-09-19T07:12:27;4.63;;;2.80;;
71570;SDS011;59407;42.682;23.322;2023-09-19T07:14:54;4.75;;;2.92;;
71570;SDS011;59407;42.682;23.322;2023-09-19T07:17:25;6.70;;;3.53;;
71570;SDS011;59407;42.682;23.322;2023-09-19T07:19:56;5.80;;;2.90;;
71570;SDS011;59407;42.682;23.322;2023-09-19T07:22:23;5.73;;;2.60;;
71570;SDS011;59407;42.682;23.322;2023-09-19T07:24:49;5.53;;;2.83;;
71570;SDS011;59407;42.682;23.322;2023-09-19T07:27:18;5.22;;;2.50;;
71570;SDS011;59407;42.682;23.322;2023-09-19T07:29:44;5.30;;;2.87;;
71570;SDS011;59407;42.682;23.322;2023-09-19T07:32:10;6.60;;;2.65;;
71570;SDS011;59407;42.682;23.322;2023-09-19T07:34:37;5.75;;;2.80;;
71570;SDS011;59407;42.682;23.322;2023-09-19T07:37:06;6.47;;;3.45;;
71570;SDS011;59407;42.682;23.322;2023-09-19T07:39:34;6.55;;;3.10;;
71570;SDS011;59407;42.682;23.322;2023-09-19T07:42:02;6.50;;;3.10;;
71570;SDS011;59407;42.682;23.322;2023-09-19T07:44:27;5.85;;;2.95;;
71570;SDS011;59407;42.682;23.322;2023-09-19T07:46:53;4.20;;;2.43;;
71570;SDS011;59407;42.682;23.322;2023-09-19T07:49:21;5.85;;;2.72;;
71570;SDS011;59407;42.682;23.322;2023-09-19T07:51:47;12.02;;;6.07;;
71570;SDS011;59407;42.682;23.322;2023-09-19T07:54:13;6.40;;;3.13;;
71570;SDS011;59407;42.682;23.322;2023-09-19T07:56:40;5.07;;;2.70;;
71570;SDS011;59407;42.682;23.322;2023-09-19T07:59:05;9.98;;;3.88;;
71570;SDS011;59407;42.682;23.322;2023-09-19T08:01:32;7.50;;;3.47;;
71570;SDS011;59407;42.682;23.322;2023-09-19T08:03:58;11.25;;;5.82;;
71570;SDS011;59407;42.682;23.322;2023-09-19T08:06:23;7.53;;;3.73;;
71570;SDS011;59407;42.682;23.322;2023-09-19T08:08:53;6.47;;;3.07;;
71570;SDS011;59407;42.682;23.322;2023-09-19T08:11:20;6.70;;;3.17;;
71570;SDS011;59407;42.682;23.322;2023-09-19T08:13:52;4.53;;;2.70;;
71570;SDS011;59407;42.682;23.322;2023-09-19T08:16:19;8.02;;;3.90;;
71570;SDS011;59407;42.682;23.322;2023-09-19T08:18:48;4.78;;;2.83;;
71570;SDS011;59407;42.682;23.322;2023-09-19T08:21:18;8.73;;;2.90;;
71570;SDS011;59407;42.682;23.322;2023-09-19T08:23:45;8.97;;;3.10;;
71570;SDS011;59407;42.682;23.322;2023-09-19T08:26:11;5.38;;;3.00;;
71570;SDS011;59407;42.682;23.322;2023-09-19T08:28:38;10.55;;;2.97;;
71570;SDS011;59407;42.682;23.322;2023-09-19T08:31:07;5.35;;;2.83;;
71570;SDS011;59407;42.682;23.322;2023-09-19T08:33:34;5.63;;;2.60;;
71570;SDS011;59407;42.682;23.322;2023-09-19T08:36:06;4.03;;;2.45;;
71570;SDS011;59407;42.682;23.322;2023-09-19T08:38:35;5.30;;;3.17;;
71570;SDS011;59407;42.682;23.322;2023-09-19T08:41:04;9.02;;;2.78;;
71570;SDS011;59407;42.682;23.322;2023-09-19T08:43:33;6.75;;;3.55;;
71570;SDS011;59407;42.682;23.322;2023-09-19T08:46:09;6.17;;;2.90;;
71570;SDS011;59407;42.682;23.322;2023-09-19T08:48:39;6.78;;;3.08;;
71570;SDS011;59407;42.682;23.322;2023-09-19T08:51:12;6.65;;;3.22;;
71570;SDS011;59407;42.682;23.322;2023-09-19T08:56:40;7.30;;;2.83;;
71570;SDS011;59407;42.682;23.322;2023-09-19T08:59:07;5.03;;;3.33;;
71570;SDS011;59407;42.682;23.322;2023-09-19T09:01:32;5.63;;;3.22;;
71570;SDS011;59407;42.682;23.322;2023-09-19T09:03:58;7.07;;;3.70;;
71570;SDS011;59407;42.682;23.322;2023-09-19T09:06:25;6.82;;;3.88;;
71570;SDS011;59407;42.682;23.322;2023-09-19T09:08:57;7.22;;;3.42;;
71570;SDS011;59407;42.682;23.322;2023-09-19T09:11:25;5.90;;;3.10;;
71570;SDS011;59407;42.682;23.322;2023-09-19T09:13:53;7.90;;;3.07;;
71570;SDS011;59407;42.682;23.322;2023-09-19T09:16:20;5.78;;;2.97;;
71570;SDS011;59407;42.682;23.322;2023-09-19T09:18:46;7.30;;;3.10;;
71570;SDS011;59407;42.682;23.322;2023-09-19T09:21:17;6.65;;;3.45;;
71570;SDS011;59407;42.682;23.322;2023-09-19T09:23:43;8.17;;;2.83;;
71570;SDS011;59407;42.682;23.322;2023-09-19T09:26:11;6.03;;;3.65;;
71570;SDS011;59407;42.682;23.322;2023-09-19T09:28:44;8.15;;;4.63;;
71570;SDS011;59407;42.682;23.322;2023-09-19T09:31:23;5.88;;;3.20;;
71570;SDS011;59407;42.682;23.322;2023-09-19T09:33:56;6.17;;;3.50;;
71570;SDS011;59407;42.682;23.322;2023-09-19T09:36:35;6.00;;;3.17;;
71570;SDS011;59407;42.682;23.322;2023-09-19T09:39:02;9.63;;;3.45;;
71570;SDS011;59407;42.682;23.322;2023-09-19T09:41:41;8.35;;;3.33;;
71570;SDS011;59407;42.682;23.322;2023-09-19T09:44:26;4.78;;;2.92;;
71570;SDS011;59407;42.682;23.322;2023-09-19T09:46:57;5.00;;;3.03;;
71570;SDS011;59407;42.682;23.322;2023-09-19T09:49:47;6.72;;;3.10;;
71570;SDS011;59407;42.682;23.322;2023-09-19T09:52:32;5.40;;;3.42;;
71570;SDS011;59407;42.682;23.322;2023-09-19T09:55:09;9.98;;;3.45;;
71570;SDS011;59407;42.682;23.322;2023-09-19T09:57:35;6.27;;;3.17;;
71570;SDS011;59407;42.682;23.322;2023-09-19T10:00:02;6.15;;;3.08;;
71570;SDS011;59407;42.682;23.322;2023-09-19T10:02:37;5.57;;;2.97;;
71570;SDS011;59407;42.682;23.322;2023-09-19T10:07:40;5.68;;;2.53;;
71570;SDS011;59407;42.682;23.322;2023-09-19T10:10:14;5.90;;;2.67;;
71570;SDS011;59407;42.682;23.322;2023-09-19T10:12:48;4.68;;;2.90;;
71570;SDS011;59407;42.682;23.322;2023-09-19T10:15:17;7.15;;;3.13;;
71570;SDS011;59407;42.682;23.322;2023-09-19T10:17:45;5.93;;;3.27;;
71570;SDS011;59407;42.682;23.322;2023-09-19T10:20:15;5.65;;;3.20;;
71570;SDS011;59407;42.682;23.322;2023-09-19T10:23:15;5.60;;;3.22;;
71570;SDS011;59407;42.682;23.322;2023-09-19T10:25:48;5.55;;;2.70;;
71570;SDS011;59407;42.682;23.322;2023-09-19T10:28:14;9.80;;;3.38;;
71570;SDS011;59407;42.682;23.322;2023-09-19T10:30:42;8.00;;;3.30;;
71570;SDS011;59407;42.682;23.322;2023-09-19T10:33:19;6.55;;;2.72;;
71570;SDS011;59407;42.682;23.322;2023-09-19T10:35:46;5.95;;;3.30;;
71570;SDS011;59407;42.682;23.322;2023-09-19T10:38:13;8.25;;;3.10;;
71570;SDS011;59407;42.682;23.322;2023-09-19T10:40:41;6.55;;;3.45;;
71570;SDS011;59407;42.682;23.322;2023-09-19T10:43:12;4.60;;;2.87;;
71570;SDS011;59407;42.682;23.322;2023-09-19T10:45:38;5.18;;;2.70;;
71570;SDS011;59407;42.682;23.322;2023-09-19T10:48:05;6.00;;;2.83;;
71570;SDS011;59407;42.682;23.322;2023-09-19T10:50:51;7.53;;;2.58;;
71570;SDS011;59407;42.682;23.322;2023-09-19T10:53:20;6.25;;;2.88;;
71570;SDS011;59407;42.682;23.322;2023-09-19T10:55:49;5.47;;;2.63;;
71570;SDS011;59407;42.682;23.322;2023-09-19T10:58:26;4.72;;;2.47;;
71570;SDS011;59407;42.682;23.322;2023-09-19T11:00:54;6.63;;;3.25;;
71570;SDS011;59407;42.682;23.322;2023-09-19T11:03:22;5.57;;;3.15;;
71570;SDS011;59407;42.682;23.322;2023-09-19T11:06:12;6.07;;;3.25;;
71570;SDS011;59407;42.682;23.322;2023-09-19T11:11:50;5.95;;;2.80;;
71570;SDS011;59407;42.682;23.322;2023-09-19T11:30:47;6.40;;;3.13;;
71570;SDS011;59407;42.682;23.322;2023-09-19T11:33:20;7.70;;;2.90;;
71570;SDS011;59407;42.682;23.322;2023-09-19T11:43:47;5.72;;;3.17;;
71570;SDS011;59407;42.682;23.322;2023-09-19T11:46:13;5.82;;;3.53;;
71570;SDS011;59407;42.682;23.322;2023-09-19T11:48:46;5.77;;;3.10;;
71570;SDS011;59407;42.682;23.322;2023-09-19T11:51:15;5.55;;;3.10;;
71570;SDS011;59407;42.682;23.322;2023-09-19T11:53:56;6.80;;;3.30;;
71570;SDS011;59407;42.682;23.322;2023-09-19T11:56:25;4.78;;;3.20;;
71570;SDS011;59407;42.682;23.322;2023-09-19T11:58:53;5.80;;;3.20;;
71570;SDS011;59407;42.682;23.322;2023-09-19T12:01:23;5.50;;;3.03;;
71570;SDS011;59407;42.682;23.322;2023-09-19T12:03:54;6.05;;;3.33;;
71570;SDS011;59407;42.682;23.322;2023-09-19T12:06:22;7.35;;;3.63;;
71570;SDS011;59407;42.682;23.322;2023-09-19T12:08:48;5.50;;;3.28;;
71570;SDS011;59407;42.682;23.322;2023-09-19T12:11:15;6.30;;;3.47;;
71570;SDS011;59407;42.682;23.322;2023-09-19T12:13:43;5.73;;;3.30;;
71570;SDS011;59407;42.682;23.322;2023-09-19T12:16:16;5.47;;;3.30;;
71570;SDS011;59407;42.682;23.322;2023-09-19T12:18:45;5.75;;;3.90;;
71570;SDS011;59407;42.682;23.322;2023-09-19T12:21:28;5.00;;;3.40;;
71570;SDS011;59407;42.682;23.322;2023-09-19T12:29:11;5.68;;;2.92;;
71570;SDS011;59407;42.682;23.322;2023-09-19T12:31:59;4.90;;;3.30;;
71570;SDS011;59407;42.682;23.322;2023-09-19T12:34:34;5.35;;;3.50;;
71570;SDS011;59407;42.682;23.322;2023-09-19T12:40:04;5.77;;;3.10;;
71570;SDS011;59407;42.682;23.322;2023-09-19T12:42:42;5.63;;;3.20;;
71570;SDS011;59407;42.682;23.322;2023-09-19T12:45:09;5.18;;;3.22;;
71570;SDS011;59407;42.682;23.322;2023-09-19T12:47:38;6.35;;;3.22;;
71570;SDS011;59407;42.682;23.322;2023-09-19T12:50:14;6.80;;;3.38;;
71570;SDS011;59407;42.682;23.322;2023-09-19T12:52:47;5.93;;;3.23;;
71570;SDS011;59407;42.682;23.322;2023-09-19T12:55:26;5.35;;;3.33;;
71570;SDS011;59407;42.682;23.322;2023-09-19T13:00:34;5.40;;;3.00;;
71570;SDS011;59407;42.682;23.322;2023-09-19T13:06:00;8.33;;;3.47;;
71570;SDS011;59407;42.682;23.322;2023-09-19T13:08:37;4.63;;;3.00;;
71570;SDS011;59407;42.682;23.322;2023-09-19T13:11:15;7.13;;;3.47;;
71570;SDS011;59407;42.682;23.322;2023-09-19T13:13:49;5.63;;;3.40;;
71570;SDS011;59407;42.682;23.322;2023-09-19T13:16:22;5.93;;;3.42;;
71570;SDS011;59407;42.682;23.322;2023-09-19T13:18:52;6.17;;;3.13;;
71570;SDS011;59407;42.682;23.322;2023-09-19T13:26:51;10.35;;;4.03;;
71570;SDS011;59407;42.682;23.322;2023-09-19T13:29:17;5.25;;;3.05;;
71570;SDS011;59407;42.682;23.322;2023-09-19T13:31:50;5.10;;;3.13;;
71570;SDS011;59407;42.682;23.322;2023-09-19T13:34:19;6.53;;;2.95;;
71570;SDS011;59407;42.682;23.322;2023-09-19T13:36:46;5.97;;;3.58;;
71570;SDS011;59407;42.682;23.322;2023-09-19T13:39:13;5.45;;;3.20;;
71570;SDS011;59407;42.682;23.322;2023-09-19T13:41:46;5.80;;;3.55;;
71570;SDS011;59407;42.682;23.322;2023-09-19T13:44:13;7.23;;;2.83;;
71570;SDS011;59407;42.682;23.322;2023-09-19T13:46:40;5.82;;;3.38;;
71570;SDS011;59407;42.682;23.322;2023-09-19T13:49:10;5.78;;;3.38;;
71570;SDS011;59407;42.682;23.322;2023-09-19T13:51:36;5.88;;;3.03;;
71570;SDS011;59407;42.682;23.322;2023-09-19T13:54:02;6.23;;;3.20;;
71570;SDS011;59407;42.682;23.322;2023-09-19T13:56:30;5.40;;;3.22;;
71570;SDS011;59407;42.682;23.322;2023-09-19T13:58:57;5.13;;;3.33;;
71570;SDS011;59407;42.682;23.322;2023-09-19T14:01:24;6.50;;;3.40;;
71570;SDS011;59407;42.682;23.322;2023-09-19T14:03:51;7.40;;;3.67;;
71570;SDS011;59407;42.682;23.322;2023-09-19T14:06:23;6.07;;;3.67;;
71570;SDS011;59407;42.682;23.322;2023-09-19T14:08:49;9.27;;;5.75;;
71570;SDS011;59407;42.682;23.322;2023-09-19T14:11:15;7.32;;;3.53;;
71570;SDS011;59407;42.682;23.322;2023-09-19T14:13:42;6.93;;;3.67;;
71570;SDS011;59407;42.682;23.322;2023-09-19T14:16:13;5.93;;;3.55;;
71570;SDS011;59407;42.682;23.322;2023-09-19T14:18:39;5.97;;;3.72;;
71570;SDS011;59407;42.682;23.322;2023-09-19T14:21:05;4.70;;;3.00;;
71570;SDS011;59407;42.682;23.322;2023-09-19T14:23:39;6.30;;;3.58;;
71570;SDS011;59407;42.682;23.322;2023-09-19T14:26:06;6.07;;;3.60;;
71570;SDS011;59407;42.682;23.322;2023-09-19T14:28:38;4.87;;;3.23;;
71570;SDS011;59407;42.682;23.322;2023-09-19T14:31:05;5.00;;;2.80;;
71570;SDS011;59407;42.682;23.322;2023-09-19T14:33:32;5.65;;;3.22;;
71570;SDS011;59407;42.682;23.322;2023-09-19T14:35:57;6.00;;;3.10;;
71570;SDS011;59407;42.682;23.322;2023-09-19T14:38:34;5.43;;;3.42;;
71570;SDS011;59407;42.682;23.322;2023-09-19T14:41:06;5.75;;;3.50;;
71570;SDS011;59407;42.682;23.322;2023-09-19T14:43:31;6.07;;;3.50;;
71570;SDS011;59407;42.682;23.322;2023-09-19T14:46:05;5.10;;;2.92;;
71570;SDS011;59407;42.682;23.322;2023-09-19T14:48:35;5.20;;;3.15;;
71570;SDS011;59407;42.682;23.322;2023-09-19T14:51:03;6.65;;;3.63;;
71570;SDS011;59407;42.682;23.322;2023-09-19T14:53:29;8.85;;;4.05;;
71570;SDS011;59407;42.682;23.322;2023-09-19T14:55:55;7.00;;;4.23;;
71570;SDS011;59407;42.682;23.322;2023-09-19T14:58:22;6.45;;;4.53;;
71570;SDS011;59407;42.682;23.322;2023-09-19T15:03:26;6.95;;;4.13;;
71570;SDS011;59407;42.682;23.322;2023-09-19T15:05:58;11.33;;;4.20;;
71570;SDS011;59407;42.682;23.322;2023-09-19T15:08:34;8.02;;;4.25;;
71570;SDS011;59407;42.682;23.322;2023-09-19T15:11:03;6.20;;;3.72;;
71570;SDS011;59407;42.682;23.322;2023-09-19T15:13:30;7.38;;;4.20;;
71570;SDS011;59407;42.682;23.322;2023-09-19T15:16:00;6.93;;;4.10;;
71570;SDS011;59407;42.682;23.322;2023-09-19T15:18:34;7.07;;;3.97;;
71570;SDS011;59407;42.682;23.322;2023-09-19T15:21:11;6.10;;;4.25;;
71570;SDS011;59407;42.682;23.322;2023-09-19T15:23:39;7.13;;;3.83;;
71570;SDS011;59407;42.682;23.322;2023-09-19T15:26:06;7.30;;;4.78;;
71570;SDS011;59407;42.682;23.322;2023-09-19T15:28:39;6.10;;;4.03;;
71570;SDS011;59407;42.682;23.322;2023-09-19T15:31:06;6.20;;;4.30;;
71570;SDS011;59407;42.682;23.322;2023-09-19T15:33:32;6.57;;;4.57;;
71570;SDS011;59407;42.682;23.322;2023-09-19T15:38:27;8.00;;;4.10;;
71570;SDS011;59407;42.682;23.322;2023-09-19T15:40:53;7.07;;;4.13;;
71570;SDS011;59407;42.682;23.322;2023-09-19T15:43:19;7.90;;;4.68;;
71570;SDS011;59407;42.682;23.322;2023-09-19T15:45:46;8.70;;;6.00;;
71570;SDS011;59407;42.682;23.322;2023-09-19T15:48:13;11.57;;;5.78;;
71570;SDS011;59407;42.682;23.322;2023-09-19T15:50:39;7.15;;;4.38;;
71570;SDS011;59407;42.682;23.322;2023-09-19T15:53:07;6.53;;;3.90;;
71570;SDS011;59407;42.682;23.322;2023-09-19T15:55:39;7.47;;;4.40;;